createdAt,value
2023-05-06T00:02:26.187Z,37.93
2023-05-06T00:04:53.832Z,37.94
2023-05-06T00:07:20.396Z,37.80
2023-05-06T00:09:47.053Z,37.77
2023-05-06T00:12:13.497Z,37.85
2023-05-06T00:14:39.807Z,37.86
2023-05-06T00:17:06.132Z,37.78
2023-05-06T00:19:32.450Z,37.81
2023-05-06T00:21:59.102Z,37.94
2023-05-06T00:24:25.501Z,37.93
2023-05-06T00:26:53.658Z,37.87
2023-05-06T00:29:19.975Z,37.72
2023-05-06T00:31:46.579Z,37.80
2023-05-06T00:34:12.986Z,37.68
2023-05-06T00:36:39.322Z,37.57
2023-05-06T00:39:06.093Z,37.52
2023-05-06T00:41:35.676Z,37.60
2023-05-06T00:44:02.017Z,37.68
2023-05-06T00:46:29.877Z,37.68
2023-05-06T00:48:56.585Z,37.67
2023-05-06T00:51:22.904Z,37.67
2023-05-06T00:53:49.436Z,37.79
2023-05-06T00:56:20.065Z,37.70
2023-05-06T00:58:47.098Z,37.59
2023-05-06T01:01:13.464Z,37.58
2023-05-06T01:03:39.968Z,37.64
2023-05-06T01:06:09.051Z,37.53
2023-05-06T01:08:36.287Z,37.55
2023-05-06T01:11:05.516Z,37.42
2023-05-06T01:13:35.538Z,37.74
2023-05-06T01:16:05.385Z,37.51
2023-05-06T01:18:32.327Z,37.66
2023-05-06T01:20:59.141Z,37.81
2023-05-06T01:23:25.479Z,37.55
2023-05-06T01:25:51.873Z,37.63
2023-05-06T01:28:18.242Z,37.65
2023-05-06T01:30:53.604Z,37.58
2023-05-06T01:33:26.076Z,37.55
2023-05-06T01:36:08.483Z,37.60
2023-05-06T01:38:35.673Z,37.58
2023-05-06T01:41:02.059Z,37.55
2023-05-06T01:43:29.723Z,37.41
2023-05-06T01:45:56.189Z,37.50
2023-05-06T01:48:26.361Z,37.59
2023-05-06T01:50:52.947Z,37.41
2023-05-06T01:53:19.264Z,37.52
2023-05-06T01:55:45.608Z,37.52
2023-05-06T01:58:11.937Z,37.44
2023-05-06T02:00:38.250Z,37.51
2023-05-06T02:03:06.066Z,37.43
2023-05-06T02:05:32.468Z,37.39
2023-05-06T02:07:58.816Z,37.52
2023-05-06T02:10:25.161Z,37.50
2023-05-06T02:12:51.577Z,37.46
2023-05-06T02:15:17.944Z,37.45
2023-05-06T02:17:44.319Z,37.47
2023-05-06T02:20:11.020Z,37.31
2023-05-06T02:22:37.412Z,37.31
2023-05-06T02:25:04.005Z,37.31
2023-05-06T02:27:30.835Z,37.43
2023-05-06T02:29:57.147Z,37.32
2023-05-06T02:32:23.521Z,37.46
2023-05-06T02:34:50.088Z,37.50
2023-05-06T02:37:16.401Z,37.37
2023-05-06T02:39:44.245Z,37.18
2023-05-06T02:42:13.320Z,37.26
2023-05-06T02:44:40.712Z,37.24
2023-05-06T02:47:07.038Z,37.42
2023-05-06T02:49:33.620Z,37.51
2023-05-06T02:52:00.204Z,37.41
2023-05-06T02:54:27.463Z,37.49
2023-05-06T02:56:53.821Z,37.36
2023-05-06T02:59:21.160Z,37.51
2023-05-06T03:01:47.470Z,37.46
2023-05-06T03:04:15.482Z,37.47
2023-05-06T03:06:41.880Z,37.56
2023-05-06T03:09:08.689Z,37.45
2023-05-06T03:11:35.056Z,37.46
2023-05-06T03:14:01.383Z,37.46
2023-05-06T03:16:28.211Z,37.42
2023-05-06T03:18:55.276Z,37.33
2023-05-06T03:21:21.637Z,37.34
2023-05-06T03:23:47.993Z,37.30
2023-05-06T03:26:14.434Z,37.19
2023-05-06T03:28:42.771Z,37.29
2023-05-06T03:31:09.115Z,37.24
2023-05-06T03:33:36.544Z,37.14
2023-05-06T03:36:02.869Z,37.20
2023-05-06T03:38:29.194Z,37.03
2023-05-06T03:40:55.984Z,36.98
2023-05-06T03:43:22.309Z,37.32
2023-05-06T03:45:49.691Z,37.17
2023-05-06T03:48:16.072Z,37.36
2023-05-06T03:50:42.774Z,37.39
2023-05-06T03:53:09.125Z,37.36
2023-05-06T03:55:35.461Z,37.16
2023-05-06T03:58:01.829Z,37.31
2023-05-06T04:00:28.451Z,37.17
2023-05-06T04:02:54.829Z,37.09
2023-05-06T04:05:21.465Z,37.24
2023-05-06T04:07:47.776Z,37.26
2023-05-06T04:10:14.098Z,37.33
2023-05-06T04:12:40.685Z,37.26
2023-05-06T04:15:07.468Z,37.25
2023-05-06T04:17:34.064Z,37.17
2023-05-06T04:20:01.218Z,37.05
2023-05-06T04:22:27.544Z,37.04
2023-05-06T04:24:54.155Z,36.98
2023-05-06T04:27:20.692Z,37.20
2023-05-06T04:29:48.285Z,37.04
2023-05-06T04:32:18.068Z,37.17
2023-05-06T04:34:44.667Z,37.13
2023-05-06T04:37:12.006Z,37.17
2023-05-06T04:39:39.357Z,37.15
2023-05-06T04:42:05.798Z,37.08
2023-05-06T04:44:34.395Z,37.04
2023-05-06T04:47:00.837Z,37.17
2023-05-06T04:49:27.415Z,37.09
2023-05-06T04:51:54.997Z,37.10
2023-05-06T04:54:21.538Z,37.16
2023-05-06T04:56:47.859Z,36.97
2023-05-06T04:59:15.381Z,37.16
2023-05-06T05:01:41.770Z,37.13
2023-05-06T05:04:08.220Z,37.06
2023-05-06T05:06:36.615Z,37.05
2023-05-06T05:09:02.945Z,36.76
2023-05-06T05:11:29.269Z,36.90
2023-05-06T05:13:56.904Z,36.67
2023-05-06T05:16:24.424Z,36.87
2023-05-06T05:18:50.848Z,36.93
2023-05-06T05:21:17.554Z,36.72
2023-05-06T05:23:44.242Z,36.94
2023-05-06T05:26:10.550Z,36.87
2023-05-06T05:28:36.912Z,36.91
2023-05-06T05:31:04.424Z,36.92
2023-05-06T05:33:31.150Z,36.87
2023-05-06T05:35:57.780Z,36.86
2023-05-06T05:38:24.283Z,36.83
2023-05-06T05:40:50.824Z,37.02
2023-05-06T05:43:17.144Z,37.07
2023-05-06T05:45:43.683Z,37.09
2023-05-06T05:48:09.997Z,36.85
2023-05-06T05:50:36.799Z,36.89
2023-05-06T05:53:03.142Z,37.08
2023-05-06T05:55:29.628Z,36.87
2023-05-06T05:57:55.971Z,36.77
2023-05-06T06:00:23.666Z,36.87
2023-05-06T06:02:50.273Z,36.83
2023-05-06T06:05:16.680Z,36.77
2023-05-06T06:07:43.051Z,36.84
2023-05-06T06:10:09.427Z,36.96
2023-05-06T06:12:35.852Z,36.63
2023-05-06T06:15:02.251Z,36.24
2023-05-06T06:17:28.668Z,36.23
2023-05-06T06:19:57.190Z,36.39
2023-05-06T06:22:23.777Z,36.50
2023-05-06T06:24:50.221Z,36.46
2023-05-06T06:27:16.533Z,36.29
2023-05-06T06:29:42.918Z,36.35
2023-05-06T06:32:09.346Z,36.40
2023-05-06T06:34:36.299Z,36.30
2023-05-06T06:37:02.614Z,36.29
2023-05-06T06:39:29.432Z,36.39
2023-05-06T06:41:58.882Z,36.41
2023-05-06T06:44:25.279Z,36.53
2023-05-06T06:46:51.620Z,36.79
2023-05-06T06:49:17.937Z,36.96
2023-05-06T06:51:44.264Z,37.04
2023-05-06T06:54:10.599Z,37.30
2023-05-06T06:56:37.254Z,37.22
2023-05-06T06:59:03.800Z,37.45
2023-05-06T07:01:30.513Z,37.52
2023-05-06T07:03:56.945Z,37.47
2023-05-06T07:06:24.364Z,37.41
2023-05-06T07:08:50.718Z,37.66
2023-05-06T07:11:17.099Z,37.97
2023-05-06T07:13:43.542Z,37.88
2023-05-06T07:16:11.427Z,37.79
2023-05-06T07:18:38.602Z,37.58
2023-05-06T07:21:04.914Z,37.66
2023-05-06T07:23:33.889Z,37.74
2023-05-06T07:26:00.208Z,37.63
2023-05-06T07:28:26.610Z,37.28
2023-05-06T07:30:52.958Z,37.47
2023-05-06T07:33:19.596Z,37.31
2023-05-06T07:35:46.290Z,37.47
2023-05-06T07:38:12.608Z,37.48
2023-05-06T07:40:38.919Z,37.75
2023-05-06T07:43:05.242Z,37.40
2023-05-06T07:45:31.753Z,37.62
2023-05-06T07:47:58.207Z,37.34
2023-05-06T07:50:24.782Z,37.20
2023-05-06T07:52:51.116Z,37.00
2023-05-06T07:55:18.457Z,37.27
2023-05-06T07:57:44.966Z,37.23
2023-05-06T08:00:11.636Z,37.05
2023-05-06T08:02:39.690Z,36.80
2023-05-06T08:05:08.845Z,36.77
2023-05-06T08:07:36.988Z,36.91
2023-05-06T08:10:03.794Z,36.65
2023-05-06T08:12:30.545Z,36.84
2023-05-06T08:14:57.337Z,36.71
2023-05-06T08:17:23.661Z,36.44
2023-05-06T08:19:49.987Z,36.78
2023-05-06T08:22:16.872Z,36.38
2023-05-06T08:24:43.193Z,36.61
2023-05-06T08:27:09.573Z,36.59
2023-05-06T08:29:35.891Z,36.47
2023-05-06T08:32:02.289Z,36.18
2023-05-06T08:34:30.078Z,36.16
2023-05-06T08:36:59.381Z,36.24
2023-05-06T08:39:25.767Z,36.25
2023-05-06T08:41:52.267Z,35.96
2023-05-06T08:44:19.181Z,35.91
2023-05-06T08:46:48.452Z,36.09
2023-05-06T08:49:14.796Z,35.76
2023-05-06T08:51:41.643Z,35.78
2023-05-06T08:54:08.297Z,35.73
2023-05-06T08:56:34.958Z,35.89
2023-05-06T08:59:02.417Z,35.95
2023-05-06T09:01:28.810Z,35.61
2023-05-06T09:03:55.688Z,35.50
2023-05-06T09:06:22.362Z,35.53
2023-05-06T09:08:49.047Z,35.82
2023-05-06T09:11:22.564Z,35.50
2023-05-06T09:13:51.198Z,35.36
2023-05-06T09:16:26.399Z,35.33
2023-05-06T09:18:52.709Z,35.48
2023-05-06T09:21:19.297Z,35.60
2023-05-06T09:23:45.785Z,35.29
2023-05-06T09:26:12.145Z,35.29
2023-05-06T09:28:39.670Z,35.33
2023-05-06T09:31:06.187Z,35.61
2023-05-06T09:33:32.847Z,35.27
2023-05-06T09:36:01.510Z,35.23
2023-05-06T09:38:27.827Z,35.41
2023-05-06T09:40:58.096Z,35.58
2023-05-06T09:43:24.685Z,35.68
2023-05-06T09:45:51.431Z,35.46
2023-05-06T09:48:17.821Z,35.46
2023-05-06T09:50:45.224Z,35.54
2023-05-06T09:53:11.557Z,35.28
2023-05-06T09:55:39.605Z,35.52
2023-05-06T09:58:06.312Z,35.69
2023-05-06T10:00:32.651Z,35.38
2023-05-06T10:03:00.930Z,35.72
2023-05-06T10:05:27.400Z,35.66
2023-05-06T10:07:53.837Z,35.42
2023-05-06T10:10:20.578Z,35.51
2023-05-06T10:12:46.944Z,35.79
2023-05-06T10:15:13.658Z,35.48
2023-05-06T10:17:41.740Z,35.44
2023-05-06T10:20:09.262Z,35.54
2023-05-06T10:22:35.618Z,35.73
2023-05-06T10:25:10.861Z,35.46
2023-05-06T10:27:38.531Z,35.43
2023-05-06T10:30:06.324Z,35.72
2023-05-06T10:32:32.976Z,35.74
2023-05-06T10:35:02.201Z,35.59
2023-05-06T10:37:28.545Z,35.69
2023-05-06T10:39:54.899Z,35.56
2023-05-06T10:42:23.524Z,35.48
2023-05-06T10:44:59.590Z,35.81
2023-05-06T10:47:26.498Z,35.53
2023-05-06T10:50:12.784Z,35.60
2023-05-06T10:52:45.460Z,35.60
2023-05-06T10:55:31.040Z,35.84
2023-05-06T10:57:57.760Z,35.58
2023-05-06T11:00:24.445Z,35.52
2023-05-06T11:02:54.473Z,35.85
2023-05-06T11:05:20.844Z,35.38
2023-05-06T11:07:49.410Z,35.34
2023-05-06T11:10:15.796Z,35.45
2023-05-06T11:12:49.053Z,35.59
2023-05-06T11:15:26.605Z,35.43
2023-05-06T11:17:53.853Z,35.48
2023-05-06T11:20:23.749Z,35.65
2023-05-06T11:22:50.116Z,35.35
2023-05-06T11:25:34.876Z,35.38
2023-05-06T11:28:01.452Z,35.60
2023-05-06T11:30:27.759Z,35.55
2023-05-06T11:32:54.641Z,35.68
2023-05-06T11:35:22.892Z,35.40
2023-05-06T11:37:49.267Z,35.73
2023-05-06T11:40:16.001Z,35.64
2023-05-06T11:42:49.676Z,35.52
2023-05-06T11:45:16.859Z,35.71
2023-05-06T11:47:44.520Z,35.76
2023-05-06T11:50:11.470Z,35.78
2023-05-06T11:52:38.276Z,35.52
2023-05-06T11:55:09.988Z,35.74
2023-05-06T11:57:36.315Z,35.81
2023-05-06T12:00:04.836Z,35.55
2023-05-06T12:02:31.233Z,35.73
2023-05-06T12:04:58.947Z,35.69
2023-05-06T12:07:26.722Z,35.58
2023-05-06T12:09:53.280Z,35.65
2023-05-06T12:12:21.643Z,35.38
2023-05-06T12:14:48.702Z,35.41
2023-05-06T12:17:15.462Z,35.52
2023-05-06T12:19:44.195Z,35.41
2023-05-06T12:22:18.056Z,35.39
2023-05-06T12:24:44.913Z,35.40
2023-05-06T12:27:11.229Z,35.68
2023-05-06T12:29:37.544Z,35.79
2023-05-06T12:32:10.751Z,35.73
2023-05-06T12:34:38.434Z,35.58
2023-05-06T12:37:04.776Z,35.63
2023-05-06T12:39:35.001Z,35.66
2023-05-06T12:42:03.429Z,35.44
2023-05-06T12:44:33.010Z,35.42
2023-05-06T12:46:59.908Z,35.35
2023-05-06T12:49:26.232Z,35.50
2023-05-06T12:52:11.483Z,35.56
2023-05-06T12:54:37.815Z,35.45
2023-05-06T12:57:05.358Z,35.39
2023-05-06T12:59:31.718Z,35.47
2023-05-06T13:01:58.410Z,35.41
2023-05-06T13:04:26.078Z,35.77
2023-05-06T13:06:52.412Z,35.74
2023-05-06T13:09:18.779Z,35.77
2023-05-06T13:11:47.439Z,35.57
2023-05-06T13:14:13.781Z,35.52
2023-05-06T13:16:40.157Z,35.66
2023-05-06T13:19:08.213Z,35.65
2023-05-06T13:21:38.069Z,35.65
2023-05-06T13:24:04.543Z,35.58
2023-05-06T13:26:30.903Z,35.67
2023-05-06T13:28:57.244Z,35.89
2023-05-06T13:31:23.635Z,35.67
2023-05-06T13:33:50.056Z,35.94
2023-05-06T13:36:19.295Z,35.71
2023-05-06T13:38:46.065Z,35.95
2023-05-06T13:41:12.903Z,35.89
2023-05-06T13:43:39.258Z,35.68
2023-05-06T13:46:05.706Z,35.72
2023-05-06T13:48:32.060Z,35.70
2023-05-06T13:50:58.747Z,35.82
2023-05-06T13:53:27.939Z,35.68
2023-05-06T13:55:54.277Z,35.59
2023-05-06T13:58:20.658Z,35.85
2023-05-06T14:00:47.030Z,35.58
2023-05-06T14:03:13.633Z,35.92
2023-05-06T14:05:42.269Z,35.68
2023-05-06T14:08:08.820Z,35.83
2023-05-06T14:10:35.164Z,35.61
2023-05-06T14:13:01.549Z,35.64
2023-05-06T14:15:27.915Z,35.83
2023-05-06T14:17:54.331Z,35.79
2023-05-06T14:20:20.687Z,35.80
2023-05-06T14:22:47.622Z,35.82
2023-05-06T14:25:14.056Z,35.86
2023-05-06T14:27:40.811Z,35.77
2023-05-06T14:30:09.284Z,35.95
2023-05-06T14:32:36.273Z,35.67
2023-05-06T14:35:03.102Z,35.74
2023-05-06T14:37:29.446Z,35.72
2023-05-06T14:39:56.877Z,35.99
2023-05-06T14:42:23.529Z,35.80
2023-05-06T14:44:50.633Z,35.68
2023-05-06T14:47:17.374Z,35.99
2023-05-06T14:49:45.449Z,35.90
2023-05-06T14:52:11.780Z,36.16
2023-05-06T14:54:42.182Z,35.85
2023-05-06T14:57:09.266Z,36.00
2023-05-06T14:59:35.782Z,35.83
2023-05-06T15:02:03.498Z,35.84
2023-05-06T15:04:31.473Z,35.87
2023-05-06T15:06:58.085Z,36.15
2023-05-06T15:09:24.906Z,36.17
2023-05-06T15:11:51.253Z,35.94
2023-05-06T15:14:17.600Z,36.21
2023-05-06T15:16:44.576Z,36.25
2023-05-06T15:19:11.690Z,36.12
2023-05-06T15:21:38.259Z,36.01
2023-05-06T15:24:04.625Z,36.03
2023-05-06T15:26:31.977Z,36.06
2023-05-06T15:28:58.356Z,36.31
2023-05-06T15:31:24.693Z,36.26
2023-05-06T15:33:55.459Z,36.36
2023-05-06T15:36:21.782Z,36.20
2023-05-06T15:38:51.264Z,36.55
2023-05-06T15:41:17.805Z,36.45
2023-05-06T15:43:44.469Z,36.20
2023-05-06T15:46:11.241Z,36.50
2023-05-06T15:48:37.598Z,36.25
2023-05-06T15:51:04.205Z,36.31
2023-05-06T15:53:30.809Z,36.45
2023-05-06T15:56:07.238Z,36.48
2023-05-06T15:58:41.664Z,36.80
2023-05-06T16:01:08.920Z,36.80
2023-05-06T16:03:36.259Z,36.78
2023-05-06T16:06:02.672Z,36.99
2023-05-06T16:08:32.984Z,36.80
2023-05-06T16:10:59.355Z,36.80
2023-05-06T16:13:26.535Z,36.76
2023-05-06T16:15:52.957Z,36.96
2023-05-06T16:18:20.336Z,36.90
2023-05-06T16:20:46.649Z,36.96
2023-05-06T16:23:13.618Z,37.08
2023-05-06T16:25:40.918Z,37.02
2023-05-06T16:28:07.355Z,37.14
2023-05-06T16:30:33.693Z,36.84
2023-05-06T16:33:00.426Z,37.14
2023-05-06T16:35:28.522Z,37.10
2023-05-06T16:37:55.440Z,37.08
2023-05-06T16:40:21.881Z,37.01
2023-05-06T16:42:48.869Z,37.16
2023-05-06T16:45:15.276Z,37.28
2023-05-06T16:47:42.795Z,37.17
2023-05-06T16:52:49.879Z,37.33
2023-05-06T16:55:16.208Z,37.32
2023-05-06T16:57:42.647Z,37.23
2023-05-06T17:00:11.972Z,37.08
2023-05-06T17:02:39.200Z,37.01
2023-05-06T17:05:06.191Z,37.29
2023-05-06T17:07:32.506Z,37.41
2023-05-06T17:09:58.828Z,37.27
2023-05-06T17:12:26.739Z,37.40
2023-05-06T17:14:53.063Z,37.28
2023-05-06T17:17:21.417Z,37.45
2023-05-06T17:19:48.160Z,37.47
2023-05-06T17:22:14.508Z,37.26
2023-05-06T17:24:40.906Z,37.42
2023-05-06T17:27:07.259Z,37.13
2023-05-06T17:29:33.639Z,37.21
2023-05-06T17:31:59.975Z,37.36
2023-05-06T17:34:26.376Z,37.35
2023-05-06T17:36:52.851Z,37.13
2023-05-06T17:39:19.550Z,37.25
2023-05-06T17:41:45.925Z,37.17
2023-05-06T17:44:12.311Z,37.16
2023-05-06T17:46:38.653Z,37.24
2023-05-06T17:49:05.056Z,37.23
2023-05-06T17:51:31.455Z,36.96
2023-05-06T17:53:58.129Z,37.11
2023-05-06T17:56:24.507Z,37.01
2023-05-06T17:58:50.842Z,37.21
2023-05-06T18:01:17.187Z,37.20
2023-05-06T18:03:44.794Z,37.14
2023-05-06T18:06:11.656Z,37.03
2023-05-06T18:08:38.013Z,37.17
2023-05-06T18:11:04.321Z,36.99
2023-05-06T18:13:31.381Z,37.04
2023-05-06T18:15:57.733Z,37.19
2023-05-06T18:18:24.076Z,37.04
2023-05-06T18:20:50.403Z,37.26
2023-05-06T18:23:16.814Z,37.30
2023-05-06T18:25:43.132Z,37.06
2023-05-06T18:28:09.457Z,37.06
2023-05-06T18:30:36.231Z,37.32
2023-05-06T18:33:02.648Z,37.11
2023-05-06T18:35:28.978Z,37.28
2023-05-06T18:37:55.306Z,37.18
2023-05-06T18:40:21.654Z,37.11
2023-05-06T18:42:48.001Z,37.28
2023-05-06T18:45:14.326Z,37.11
2023-05-06T18:47:40.689Z,37.27
2023-05-06T18:50:07.757Z,37.21
2023-05-06T18:52:35.949Z,37.38
2023-05-06T18:55:04.066Z,37.19
2023-05-06T18:57:30.708Z,37.18
2023-05-06T18:59:57.036Z,37.25
2023-05-06T19:02:23.436Z,37.18
2023-05-06T19:04:49.821Z,37.30
2023-05-06T19:07:16.372Z,37.51
2023-05-06T19:09:43.074Z,37.20
2023-05-06T19:12:09.428Z,37.35
2023-05-06T19:14:35.800Z,37.37
2023-05-06T19:17:02.867Z,37.53
2023-05-06T19:19:29.238Z,37.24
2023-05-06T19:21:55.562Z,37.50
2023-05-06T19:24:21.883Z,37.41
2023-05-06T19:26:48.191Z,37.52
2023-05-06T19:29:14.765Z,37.68
2023-05-06T19:31:41.115Z,37.84
2023-05-06T19:34:08.318Z,37.30
2023-05-06T19:36:34.643Z,37.75
2023-05-06T19:39:01.038Z,37.80
2023-05-06T19:41:27.423Z,38.05
2023-05-06T19:43:53.802Z,38.36
2023-05-06T19:46:20.277Z,38.25
2023-05-06T19:48:46.693Z,38.50
2023-05-06T19:51:13.043Z,38.32
2023-05-06T19:53:39.355Z,38.45
2023-05-06T19:56:09.044Z,38.39
2023-05-06T19:58:35.374Z,38.39
2023-05-06T20:01:01.883Z,38.47
2023-05-06T20:03:28.672Z,38.48
2023-05-06T20:05:55.066Z,38.33
2023-05-06T20:08:21.382Z,38.59
2023-05-06T20:10:47.963Z,38.55
2023-05-06T20:13:14.460Z,38.31
2023-05-06T20:15:41.479Z,38.54
2023-05-06T20:18:07.976Z,38.63
2023-05-06T20:20:34.599Z,38.70
2023-05-06T20:23:01.930Z,38.73
2023-05-06T20:25:28.400Z,38.57
2023-05-06T20:27:54.983Z,38.62
2023-05-06T20:30:21.320Z,38.73
2023-05-06T20:32:49.125Z,38.62
2023-05-06T20:35:17.528Z,38.54
2023-05-06T20:37:44.177Z,38.76
2023-05-06T20:40:10.690Z,38.85
2023-05-06T20:42:37.035Z,38.84
2023-05-06T20:45:03.879Z,38.55
2023-05-06T20:47:30.464Z,38.81
2023-05-06T20:49:57.825Z,38.86
2023-05-06T20:52:24.131Z,38.87
2023-05-06T20:54:50.456Z,39.37
2023-05-06T20:57:16.816Z,39.18
2023-05-06T20:59:43.316Z,39.55
2023-05-06T21:02:09.673Z,39.65
2023-05-06T21:04:36.279Z,39.74
2023-05-06T21:07:02.719Z,39.73
2023-05-06T21:09:29.129Z,39.61
2023-05-06T21:11:55.633Z,39.54
2023-05-06T21:14:23.282Z,39.78
2023-05-06T21:16:49.599Z,39.45
2023-05-06T21:19:15.922Z,39.63
2023-05-06T21:21:42.427Z,39.37
2023-05-06T21:24:08.794Z,39.68
2023-05-06T21:26:35.129Z,39.54
2023-05-06T21:29:01.474Z,39.57
2023-05-06T21:31:27.915Z,39.44
2023-05-06T21:33:55.021Z,39.50
2023-05-06T21:36:21.347Z,39.43
2023-05-06T21:38:47.838Z,39.50
2023-05-06T21:41:14.190Z,39.79
2023-05-06T21:43:41.758Z,39.74
2023-05-06T21:46:08.114Z,40.06
2023-05-06T21:48:34.490Z,39.66
2023-05-06T21:51:03.876Z,39.46
2023-05-06T21:53:30.424Z,39.68
2023-05-06T21:55:57.470Z,39.60
2023-05-06T21:58:23.805Z,39.57
2023-05-06T22:00:50.182Z,39.68
2023-05-06T22:03:16.559Z,39.67
2023-05-06T22:05:42.937Z,39.68
2023-05-06T22:08:09.263Z,39.64
2023-05-06T22:10:35.669Z,39.55
2023-05-06T22:13:02.045Z,39.67
2023-05-06T22:15:28.657Z,39.49
2023-05-06T22:17:55.260Z,39.32
2023-05-06T22:20:22.625Z,39.74
2023-05-06T22:22:50.658Z,39.60
2023-05-06T22:25:16.997Z,39.44
2023-05-06T22:27:43.311Z,39.47
2023-05-06T22:30:10.157Z,39.30
2023-05-06T22:32:36.517Z,39.29
2023-05-06T22:35:02.897Z,39.58
2023-05-06T22:37:29.223Z,39.51
2023-05-06T22:39:55.870Z,39.42
2023-05-06T22:42:22.192Z,39.46
2023-05-06T22:44:48.521Z,39.27
2023-05-06T22:47:16.352Z,39.34
2023-05-06T22:49:42.731Z,39.56
2023-05-06T22:52:09.055Z,39.29
2023-05-06T22:54:35.506Z,39.35
2023-05-06T22:57:01.992Z,39.12
2023-05-06T22:59:28.356Z,39.33
2023-05-06T23:01:54.678Z,39.21
2023-05-06T23:04:21.093Z,39.21
2023-05-06T23:06:47.469Z,39.41
2023-05-06T23:09:14.002Z,39.26
2023-05-06T23:11:40.637Z,39.26
2023-05-06T23:14:07.446Z,39.24
2023-05-06T23:16:33.933Z,39.31
2023-05-06T23:19:00.318Z,39.18
2023-05-06T23:21:26.784Z,39.13
2023-05-06T23:23:53.108Z,39.26
2023-05-06T23:26:19.618Z,39.09
2023-05-06T23:28:45.930Z,39.13
2023-05-06T23:31:12.389Z,39.15
2023-05-06T23:33:38.796Z,39.19
2023-05-06T23:36:05.214Z,39.16
2023-05-06T23:38:31.535Z,39.28
2023-05-06T23:40:57.862Z,39.26
2023-05-06T23:43:24.172Z,39.22
2023-05-06T23:45:50.525Z,39.22
2023-05-06T23:48:16.855Z,39.26
2023-05-06T23:50:43.192Z,39.21
2023-05-06T23:53:09.655Z,39.18
2023-05-06T23:55:35.977Z,38.97
2023-05-06T23:58:02.422Z,39.00
